createdAt,value
2022-09-10T00:03:46.086Z,64.40
2022-09-10T00:08:50.062Z,64.70
2022-09-10T00:13:53.599Z,64.60
2022-09-10T00:18:58.922Z,64.60
2022-09-10T00:24:03.170Z,64.80
2022-09-10T00:29:08.524Z,65.70
2022-09-10T00:34:14.460Z,66.40
2022-09-10T00:39:21.337Z,66.40
2022-09-10T00:44:57.803Z,66.40
2022-09-10T00:50:07.437Z,66.20
2022-09-10T00:55:12.478Z,66.70
2022-09-10T01:00:17.297Z,67.10
2022-09-10T01:05:23.476Z,67.00
2022-09-10T01:10:29.525Z,66.90
2022-09-10T01:15:41.064Z,66.80
2022-09-10T01:21:01.172Z,66.00
2022-09-10T01:26:12.578Z,65.80
2022-09-10T01:31:23.622Z,65.70
2022-09-10T01:36:31.268Z,65.40
2022-09-10T01:41:35.323Z,65.30
2022-09-10T01:46:52.873Z,65.30
2022-09-10T01:52:12.224Z,65.30
2022-09-10T01:57:28.206Z,65.50
2022-09-10T02:02:37.145Z,66.30
2022-09-10T02:07:40.743Z,66.30
2022-09-10T02:12:44.243Z,66.70
2022-09-10T02:17:49.803Z,66.90
2022-09-10T02:22:58.666Z,66.80
2022-09-10T02:28:02.330Z,67.30
2022-09-10T02:33:06.964Z,67.20
2022-09-10T02:38:10.400Z,67.20
2022-09-10T02:43:14.694Z,66.80
2022-09-10T02:48:21.066Z,67.40
2022-09-10T02:53:26.180Z,67.70
2022-09-10T02:58:31.500Z,67.80
2022-09-10T03:03:36.406Z,67.80
2022-09-10T03:08:39.752Z,67.80
2022-09-10T03:13:43.924Z,67.80
2022-09-10T03:18:48.874Z,67.80
2022-09-10T03:23:53.865Z,67.90
2022-09-10T03:28:57.211Z,68.00
2022-09-10T03:34:01.840Z,67.90
2022-09-10T03:39:05.360Z,68.00
2022-09-10T03:44:08.797Z,68.20
2022-09-10T03:49:13.420Z,68.50
2022-09-10T03:54:16.951Z,69.00
2022-09-10T03:59:20.819Z,69.70
2022-09-10T04:04:25.931Z,70.30
2022-09-10T04:09:29.247Z,70.70
2022-09-10T04:14:32.685Z,70.90
2022-09-10T04:19:38.251Z,70.90
2022-09-10T04:24:42.234Z,70.90
2022-09-10T04:29:46.392Z,71.10
2022-09-10T04:34:51.622Z,71.00
2022-09-10T04:39:55.126Z,70.90
2022-09-10T04:44:59.141Z,70.70
2022-09-10T04:50:03.810Z,70.60
2022-09-10T04:55:08.316Z,70.50
2022-09-10T05:00:13.507Z,70.70
2022-09-10T05:05:18.233Z,70.60
2022-09-10T05:10:21.869Z,70.50
2022-09-10T05:15:26.656Z,70.50
2022-09-10T05:20:32.087Z,70.50
2022-09-10T05:25:35.374Z,70.60
2022-09-10T05:30:39.066Z,71.00
2022-09-10T05:35:44.560Z,71.00
2022-09-10T05:40:48.221Z,71.10
2022-09-10T05:45:52.493Z,71.10
2022-09-10T05:50:57.193Z,71.00
2022-09-10T05:56:00.734Z,71.00
2022-09-10T06:01:04.825Z,71.00
2022-09-10T06:06:10.284Z,71.10
2022-09-10T06:11:13.896Z,70.90
2022-09-10T06:16:18.285Z,71.00
2022-09-10T06:21:28.186Z,71.10
2022-09-10T06:26:31.704Z,71.20
2022-09-10T06:31:35.174Z,71.00
2022-09-10T06:36:39.934Z,70.90
2022-09-10T06:41:47.869Z,71.40
2022-09-10T06:47:25.794Z,71.70
2022-09-10T06:52:19.173Z,71.70
2022-09-10T06:57:26.129Z,71.60
2022-09-10T07:02:31.338Z,71.60
2022-09-10T07:07:36.202Z,71.10
2022-09-10T07:12:39.726Z,71.00
2022-09-10T07:17:42.991Z,70.70
2022-09-10T07:22:48.906Z,71.00
2022-09-10T07:27:52.484Z,70.90
2022-09-10T07:32:55.821Z,70.60
2022-09-10T07:38:00.508Z,70.90
2022-09-10T07:43:03.845Z,70.70
2022-09-10T07:48:07.206Z,70.30
2022-09-10T07:53:11.896Z,70.50
2022-09-10T07:58:15.220Z,70.40
2022-09-10T08:03:20.446Z,69.90
2022-09-10T08:08:25.226Z,70.10
2022-09-10T08:13:30.039Z,69.70
2022-09-10T08:18:33.627Z,68.80
2022-09-10T08:23:39.617Z,69.00
2022-09-10T08:28:44.217Z,69.20
2022-09-10T08:33:50.521Z,68.50
2022-09-10T08:39:00.757Z,67.90
2022-09-10T08:44:12.467Z,66.70
2022-09-10T08:49:22.206Z,66.20
2022-09-10T08:54:32.666Z,65.10
2022-09-10T08:59:40.852Z,64.60
2022-09-10T09:04:48.801Z,64.50
2022-09-10T09:09:53.549Z,62.80
2022-09-10T09:15:08.886Z,61.90
2022-09-10T09:20:18.916Z,62.20
2022-09-10T09:25:28.413Z,62.40
2022-09-10T09:30:35.718Z,62.50
2022-09-10T09:35:46.898Z,62.00
2022-09-10T09:40:54.575Z,62.40
2022-09-10T09:45:58.298Z,62.90
2022-09-10T09:51:01.596Z,62.00
2022-09-10T09:56:12.453Z,62.10
2022-09-10T10:01:20.978Z,62.60
2022-09-10T10:06:27.122Z,63.10
2022-09-10T10:11:51.446Z,62.80
2022-09-10T10:17:00.428Z,62.00
2022-09-10T10:22:25.826Z,61.90
2022-09-10T10:27:33.679Z,61.70
2022-09-10T10:32:46.066Z,62.20
2022-09-10T10:38:06.718Z,60.90
2022-09-10T10:43:20.848Z,59.50
2022-09-10T10:48:36.875Z,59.10
2022-09-10T10:53:55.623Z,60.30
2022-09-10T10:59:17.580Z,59.90
2022-09-10T11:08:20.414Z,57.70
2022-09-10T11:13:31.608Z,56.20
2022-09-10T11:18:39.434Z,55.70
2022-09-10T11:23:48.974Z,56.40
2022-09-10T11:29:04.540Z,56.50
2022-09-10T11:34:16.232Z,56.50
2022-09-10T11:39:27.051Z,56.30
2022-09-10T11:44:44.469Z,54.60
2022-09-10T11:49:53.564Z,53.90
2022-09-10T11:54:59.224Z,54.10
2022-09-10T12:00:09.319Z,54.60
2022-09-10T12:05:23.685Z,55.30
2022-09-10T12:10:36.096Z,54.90
2022-09-10T12:15:39.295Z,54.20
2022-09-10T12:20:45.438Z,54.60
2022-09-10T12:25:59.406Z,54.60
2022-09-10T12:31:03.854Z,54.20
2022-09-10T12:36:07.244Z,53.60
2022-09-10T12:41:14.847Z,54.10
2022-09-10T12:46:19.769Z,54.20
2022-09-10T12:51:32.953Z,54.40
2022-09-10T12:57:12.820Z,56.10
2022-09-10T13:02:23.048Z,57.00
2022-09-10T13:07:33.600Z,55.60
2022-09-10T13:12:42.453Z,55.10
2022-09-10T13:18:24.133Z,55.20
2022-09-10T13:23:48.679Z,54.10
2022-09-10T13:29:11.311Z,53.80
2022-09-10T13:34:23.802Z,54.40
2022-09-10T13:40:08.917Z,54.10
2022-09-10T13:45:26.738Z,54.20
2022-09-10T13:50:36.035Z,54.50
2022-09-10T13:55:43.744Z,55.00
2022-09-10T14:00:55.093Z,55.40
2022-09-10T14:05:59.580Z,56.10
2022-09-10T14:11:08.749Z,57.90
2022-09-10T14:16:17.887Z,56.70
2022-09-10T14:21:26.995Z,56.40
2022-09-10T14:26:33.677Z,56.60
2022-09-10T14:31:38.822Z,56.60
2022-09-10T14:36:42.444Z,55.80
2022-09-10T14:41:46.544Z,55.80
2022-09-10T14:46:54.459Z,53.90
2022-09-10T14:51:59.898Z,50.40
2022-09-10T14:57:06.665Z,50.50
2022-09-10T15:02:18.099Z,48.50
2022-09-10T15:07:23.673Z,47.40
2022-09-10T15:12:29.337Z,43.50
2022-09-10T15:17:35.782Z,43.00
2022-09-10T15:22:40.132Z,42.50
2022-09-10T15:27:43.747Z,41.70
2022-09-10T15:32:48.393Z,42.60
2022-09-10T15:37:52.079Z,44.90
2022-09-10T15:42:55.520Z,45.50
2022-09-10T15:48:00.266Z,45.80
2022-09-10T15:53:11.609Z,46.70
2022-09-10T15:58:15.508Z,47.10
2022-09-10T16:03:20.636Z,47.50
2022-09-10T16:08:23.987Z,48.20
2022-09-10T16:13:27.955Z,48.50
2022-09-10T16:18:33.651Z,48.90
2022-09-10T16:23:38.072Z,54.40
2022-09-10T16:28:42.835Z,50.10
2022-09-10T16:33:51.678Z,50.50
2022-09-10T16:39:01.602Z,51.30
2022-09-10T16:44:06.020Z,51.70
2022-09-10T16:49:12.779Z,53.40
2022-09-10T16:54:19.482Z,53.60
2022-09-10T16:59:25.697Z,54.00
2022-09-10T17:04:33.133Z,55.20
2022-09-10T17:09:36.465Z,57.20
2022-09-10T17:14:40.902Z,57.50
2022-09-10T17:19:45.796Z,59.10
2022-09-10T17:24:50.019Z,62.70
2022-09-10T17:29:53.570Z,60.00
2022-09-10T17:34:58.504Z,59.20
2022-09-10T17:40:01.920Z,60.30
2022-09-10T17:45:06.219Z,61.20
2022-09-10T17:50:12.399Z,62.10
2022-09-10T17:55:15.910Z,63.10
2022-09-10T18:00:19.314Z,63.40
2022-09-10T18:05:26.520Z,63.00
2022-09-10T18:10:30.075Z,62.50
2022-09-10T18:15:33.737Z,63.00
2022-09-10T18:20:38.435Z,63.60
2022-09-10T18:25:47.887Z,63.60
2022-09-10T18:30:53.119Z,64.40
2022-09-10T18:35:57.771Z,64.70
2022-09-10T18:41:03.491Z,64.70
2022-09-10T18:46:07.191Z,64.80
2022-09-10T18:51:12.890Z,65.30
2022-09-10T18:56:18.465Z,65.20
2022-09-10T19:01:22.231Z,65.50
2022-09-10T19:06:29.089Z,65.80
2022-09-10T19:11:34.244Z,66.10
2022-09-10T19:16:37.927Z,66.20
2022-09-10T19:21:42.601Z,68.00
2022-09-10T19:26:46.509Z,67.10
2022-09-10T19:31:51.067Z,67.80
2022-09-10T19:36:55.932Z,68.70
2022-09-10T19:41:59.232Z,70.10
2022-09-10T19:47:04.036Z,70.70
2022-09-10T19:52:11.065Z,72.00
2022-09-10T19:57:14.460Z,72.50
2022-09-10T20:02:18.185Z,72.40
2022-09-10T20:07:23.438Z,72.20
2022-09-10T20:12:26.798Z,72.00
2022-09-10T20:17:30.563Z,73.40
2022-09-10T20:22:38.657Z,72.20
2022-09-10T20:27:42.170Z,71.70
2022-09-10T20:32:45.748Z,71.70
2022-09-10T20:37:51.852Z,71.30
2022-09-10T20:42:55.186Z,70.80
2022-09-10T20:48:00.342Z,70.90
2022-09-10T20:53:05.322Z,71.10
2022-09-10T20:58:08.600Z,71.40
2022-09-10T21:03:12.258Z,71.40
2022-09-10T21:08:17.015Z,71.80
2022-09-10T21:13:23.295Z,72.20
2022-09-10T21:18:28.533Z,72.80
2022-09-10T21:23:33.248Z,73.50
2022-09-10T21:28:37.022Z,74.10
2022-09-10T21:33:41.118Z,74.80
2022-09-10T21:38:49.281Z,74.90
2022-09-10T21:43:52.725Z,74.80
2022-09-10T21:48:56.545Z,74.70
2022-09-10T21:54:01.950Z,74.50
2022-09-10T21:59:05.228Z,74.70
2022-09-10T22:04:08.813Z,75.00
2022-09-10T22:09:15.282Z,75.80
2022-09-10T22:14:20.936Z,75.80
2022-09-10T22:19:27.318Z,75.80
2022-09-10T22:24:32.005Z,75.70
2022-09-10T22:29:35.275Z,75.70
2022-09-10T22:34:39.020Z,76.10
2022-09-10T22:39:43.748Z,76.20
2022-09-10T22:44:47.064Z,76.30
2022-09-10T22:49:50.494Z,75.90
2022-09-10T22:54:55.346Z,76.10
2022-09-10T22:59:58.620Z,76.30
2022-09-10T23:05:02.116Z,76.60
2022-09-10T23:10:07.711Z,77.20
2022-09-10T23:15:11.663Z,77.30
2022-09-10T23:20:15.773Z,77.30
2022-09-10T23:25:20.566Z,77.40
2022-09-10T23:30:23.842Z,77.60
2022-09-10T23:35:27.121Z,77.60
2022-09-10T23:40:34.161Z,77.30
2022-09-10T23:45:37.715Z,77.50
2022-09-10T23:50:41.221Z,77.40
2022-09-10T23:55:46.597Z,77.40
